Time;durP1;ratioP1;P1;durP2;ratioP2;P2;SDS_P1;SDS_P2;PMS_P1;PMS_P2;Temp;Humidity;BMP_temperature;BMP_pressure;BME280_temperature;BME280_humidity;BME280_pressure;Samples;Min_cycle;Max_cycle;Signal;HPM_P1;HPM_P2
2021/06/01 00:01:59;;;;;;;0.25;0.25;;;;;;;11.31;73.98;101589.56;5020614;28;20050;-85
2021/06/01 00:04:32;;;;;;;0.20;0.20;;;;;;;11.16;74.25;101573.09;5016489;28;20401;-85
2021/06/01 00:07:11;;;;;;;0.20;0.20;;;;;;;11.04;73.96;101559.66;5028578;28;20052;-84
2021/06/01 00:09:45;;;;;;;0.20;0.20;;;;;;;11.19;74.57;101580.75;5027690;28;20054;-83
2021/06/01 00:12:48;;;;;;;0.20;0.20;;;;;;;11.17;74.91;101589.19;5021978;28;20049;-84
2021/06/01 00:15:27;;;;;;;0.20;0.20;;;;;;;11.09;74.18;101578.78;5025385;28;20064;-84
2021/06/01 00:17:55;;;;;;;0.28;0.28;;;;;;;11.12;74.16;101583.69;5021753;28;20056;-83
2021/06/01 00:20:22;;;;;;;;;;;;;;;11.15;74.17;101576.91;5029833;28;20061;-83
2021/06/01 00:22:51;;;;;;;;;;;;;;;11.17;74.61;101577.44;5018113;28;19921;-83
2021/06/01 00:25:20;;;;;;;0.20;0.20;;;;;;;11.09;75.13;101577.94;5030015;28;19922;-83
2021/06/01 00:27:52;;;;;;;0.20;0.20;;;;;;;10.99;74.89;101567.78;5027582;28;20061;-83
2021/06/01 00:30:25;;;;;;;0.20;0.20;;;;;;;11.03;75.26;101586.09;5028906;28;20099;-84
2021/06/01 00:32:53;;;;;;;;;;;;;;;10.96;75.03;101579.22;5028802;28;20064;-83
2021/06/01 00:35:26;;;;;;;0.20;0.20;;;;;;;10.98;74.76;101577.88;5012200;28;19928;-84
2021/06/01 00:37:53;;;;;;;0.17;0.17;;;;;;;10.97;74.83;101580.84;5019693;28;20046;-84
2021/06/01 00:40:28;;;;;;;0.17;0.17;;;;;;;10.94;75.18;101579.47;5013315;28;20065;-84
2021/06/01 00:42:56;;;;;;;0.20;0.20;;;;;;;10.90;75.70;101581.06;5030594;28;20058;-84
2021/06/01 00:45:29;;;;;;;0.20;0.20;;;;;;;10.81;75.64;101566.28;5024078;28;20076;-83
2021/06/01 00:48:01;;;;;;;0.20;0.20;;;;;;;10.71;75.21;101556.13;5026950;28;20414;-83
2021/06/01 00:50:42;;;;;;;0.30;0.30;;;;;;;10.86;75.08;101574.50;5016878;28;20057;-83
2021/06/01 00:53:10;;;;;;;0.15;0.15;;;;;;;10.37;76.69;101502.78;5019241;28;20045;-83
2021/06/01 00:55:44;;;;;;;0.20;0.20;;;;;;;10.76;77.27;101574.41;5012622;28;20046;-83
2021/06/01 00:58:17;;;;;;;0.22;0.20;;;;;;;10.80;76.43;101573.63;5023242;28;20049;-83
2021/06/01 01:01:09;;;;;;;;;;;;;;;10.79;76.75;101568.47;5016571;28;20057;-83
2021/06/01 01:03:39;;;;;;;0.20;0.20;;;;;;;10.77;75.78;101566.00;5021827;28;19921;-83
2021/06/01 01:06:18;;;;;;;0.20;0.20;;;;;;;10.78;76.98;101577.69;5021139;28;20046;-84
2021/06/01 01:13:14;;;;;;;0.20;0.20;;;;;;;10.72;77.29;101571.38;5023648;28;20037;-84
2021/06/01 01:15:43;;;;;;;0.13;0.13;;;;;;;10.66;76.80;101575.97;5028092;28;20060;-83
2021/06/01 01:18:22;;;;;;;0.40;0.28;;;;;;;10.60;77.15;101568.81;5029181;28;20054;-84
2021/06/01 01:20:59;;;;;;;0.10;0.10;;;;;;;10.61;76.78;101575.91;5032220;28;20053;-84
2021/06/01 01:27:42;;;;;;;0.20;0.20;;;;;;;10.58;76.85;101562.00;5024662;28;19917;-83
2021/06/01 01:30:18;;;;;;;0.20;0.20;;;;;;;10.24;77.27;101516.75;5016029;28;20037;-83
2021/06/01 01:32:58;;;;;;;0.20;0.20;;;;;;;10.55;77.46;101566.06;5031563;28;20049;-83
2021/06/01 01:35:53;;;;;;;0.32;0.30;;;;;;;10.61;77.78;101567.75;5018964;28;20045;-83
2021/06/01 01:38:27;;;;;;;0.30;0.20;;;;;;;10.66;76.40;101572.41;5026269;28;20056;-83
2021/06/01 01:41:09;;;;;;;0.10;0.10;;;;;;;10.60;77.66;101566.09;5021543;28;20049;-84
2021/06/01 01:43:46;;;;;;;0.20;0.20;;;;;;;10.67;76.50;101569.44;5025975;28;20520;-83
2021/06/01 01:46:30;;;;;;;0.10;0.10;;;;;;;10.66;76.58;101565.09;5028369;28;20053;-83
2021/06/01 01:53:26;;;;;;;0.20;0.20;;;;;;;10.70;75.50;101565.38;5021608;28;20509;-83
2021/06/01 02:00:14;;;;;;;0.20;0.20;;;;;;;10.68;76.51;101564.81;5029628;28;20820;-85
2021/06/01 02:02:48;;;;;;;0.28;0.28;;;;;;;10.66;76.03;101569.69;5024146;28;20046;-85
2021/06/01 02:05:17;;;;;;;0.10;0.10;;;;;;;10.46;76.46;101535.75;5021728;28;20049;-85
2021/06/01 02:07:54;;;;;;;0.20;0.20;;;;;;;10.62;76.73;101565.84;5013121;28;20054;-83
2021/06/01 02:10:28;;;;;;;0.20;0.20;;;;;;;10.57;76.90;101554.94;5021169;28;20179;-85
2021/06/01 02:13:03;;;;;;;0.20;0.20;;;;;;;10.47;76.24;101544.78;5023684;28;20057;-85
2021/06/01 02:15:36;;;;;;;0.30;0.30;;;;;;;10.58;76.87;101556.53;5028627;28;20494;-85
2021/06/01 02:19:00;;;;;;;0.20;0.20;;;;;;;10.54;77.21;101554.34;5015300;28;20506;-85
2021/06/01 02:21:36;;;;;;;0.28;0.20;;;;;;;10.53;76.99;101555.41;5020351;28;20081;-85
2021/06/01 02:28:42;;;;;;;0.20;0.20;;;;;;;10.64;76.68;101540.00;5026298;28;20048;-85
2021/06/01 02:31:17;;;;;;;0.20;0.20;;;;;;;10.61;76.25;101532.38;5032425;28;20057;-85
2021/06/01 02:33:49;;;;;;;0.20;0.20;;;;;;;10.62;75.50;101533.19;5014891;28;20077;-85
2021/06/01 02:36:18;;;;;;;0.20;0.20;;;;;;;10.62;75.04;101534.00;5016890;28;20474;-84
2021/06/01 02:38:52;;;;;;;0.20;0.20;;;;;;;10.66;76.17;101548.75;5028921;28;20050;-84
2021/06/01 02:45:05;;;;;;;0.30;0.30;;;;;;;10.71;74.66;101543.31;5019792;28;20045;-85
2021/06/01 02:47:39;;;;;;;0.20;0.20;;;;;;;10.31;75.44;101486.63;5012783;28;20053;-85
2021/06/01 02:50:15;;;;;;;0.30;0.30;;;;;;;10.58;76.57;101535.63;5023741;28;20912;-84
2021/06/01 02:52:50;;;;;;;0.20;0.20;;;;;;;10.56;76.11;101551.38;5028614;28;20052;-83
2021/06/01 02:55:24;;;;;;;0.20;0.20;;;;;;;10.51;77.67;101551.34;5012682;28;20060;-84
2021/06/01 02:57:52;;;;;;;0.20;0.20;;;;;;;10.42;77.60;101533.84;5030363;28;20530;-85
2021/06/01 03:00:26;;;;;;;0.20;0.20;;;;;;;10.46;76.91;101543.13;5028839;28;20048;-85
2021/06/01 03:02:55;;;;;;;0.20;0.20;;;;;;;10.43;77.07;101535.47;5020157;28;20054;-84
2021/06/01 03:05:44;;;;;;;0.20;0.20;;;;;;;10.49;76.93;101539.88;5034844;28;20073;-85
2021/06/01 03:08:25;;;;;;;0.30;0.30;;;;;;;10.53;76.34;101530.94;5014494;28;20945;-84
2021/06/01 03:11:02;;;;;;;0.30;0.30;;;;;;;10.53;76.87;101532.84;5023306;28;20056;-84
2021/06/01 03:13:36;;;;;;;0.20;0.20;;;;;;;10.58;75.57;101532.06;5032820;28;20387;-84
2021/06/01 03:16:17;;;;;;;0.30;0.22;;;;;;;10.64;76.12;101531.03;5022418;28;20045;-84
2021/06/01 03:18:45;;;;;;;0.38;0.20;;;;;;;10.68;76.79;101532.16;5012553;28;20073;-84
2021/06/01 03:21:57;;;;;;;0.30;0.30;;;;;;;10.71;74.95;101524.28;5018761;28;20414;-84
2021/06/01 03:24:31;;;;;;;0.13;0.13;;;;;;;10.77;75.47;101525.16;5012451;28;20077;-85
2021/06/01 03:27:05;;;;;;;0.20;0.20;;;;;;;10.83;75.77;101529.56;5021325;28;20041;-85
2021/06/01 03:29:33;;;;;;;0.20;0.20;;;;;;;10.85;75.30;101529.28;5020821;28;20050;-84
2021/06/01 03:32:07;;;;;;;0.57;0.20;;;;;;;10.83;75.62;101521.38;5028081;28;20049;-84
2021/06/01 03:34:41;;;;;;;0.20;0.20;;;;;;;10.91;74.83;101524.69;5013014;28;20041;-84
2021/06/01 03:37:14;;;;;;;0.30;0.30;;;;;;;10.93;76.48;101523.34;5026943;28;20053;-84
2021/06/01 03:39:46;;;;;;;0.20;0.20;;;;;;;10.99;74.58;101527.78;5017698;28;20050;-84
2021/06/01 03:42:20;;;;;;;0.20;0.20;;;;;;;11.02;75.52;101526.41;5011363;28;20058;-86
2021/06/01 03:44:52;;;;;;;0.20;0.20;;;;;;;10.96;75.38;101511.13;5038209;28;20061;-83
2021/06/01 03:47:41;;;;;;;0.20;0.20;;;;;;;10.96;75.43;101508.41;5019780;28;20414;-84
2021/06/01 03:50:10;;;;;;;0.25;0.25;;;;;;;11.02;75.58;101520.94;5014188;28;20667;-84
2021/06/01 03:53:21;;;;;;;0.32;0.20;;;;;;;11.08;75.85;101527.28;5015228;28;20076;-85
2021/06/01 03:55:48;;;;;;;0.20;0.20;;;;;;;10.82;75.72;101488.97;5019689;28;20045;-84
2021/06/01 03:58:21;;;;;;;0.20;0.20;;;;;;;10.99;75.86;101522.31;5014502;28;20417;-85
2021/06/01 04:00:49;;;;;;;;;;;;;;;11.04;76.12;101526.97;5020465;28;20050;-84
2021/06/01 04:03:23;;;;;;;0.25;0.25;;;;;;;11.04;76.02;101521.53;5021780;28;19925;-85
2021/06/01 04:05:55;;;;;;;0.30;0.30;;;;;;;11.06;75.98;101517.47;5016170;28;20052;-84
2021/06/01 04:08:28;;;;;;;0.20;0.20;;;;;;;10.81;76.22;101470.97;5023825;28;20049;-85
2021/06/01 04:10:56;;;;;;;;;;;;;;;11.18;76.15;101519.16;5024796;28;20034;-85
2021/06/01 04:13:23;;;;;;;;;;;;;;;11.24;75.83;101507.19;5025647;28;19928;-85
2021/06/01 04:16:49;;;;;;;0.20;0.20;;;;;;;11.33;74.31;101518.44;5024214;28;19921;-84
2021/06/01 04:19:23;;;;;;;0.28;0.28;;;;;;;11.37;75.33;101512.19;5015047;28;20417;-85
2021/06/01 04:21:52;;;;;;;0.20;0.20;;;;;;;11.20;75.51;101487.84;5018395;28;21429;-86
2021/06/01 04:24:27;;;;;;;0.20;0.20;;;;;;;11.44;74.88;101511.13;5025507;28;21398;-85
2021/06/01 04:27:01;;;;;;;0.25;0.25;;;;;;;11.51;74.56;101506.25;5026520;28;20061;-85
2021/06/01 04:29:33;;;;;;;0.30;0.30;;;;;;;11.63;74.99;101516.91;5023743;28;20053;-85
2021/06/01 04:32:07;;;;;;;0.20;0.20;;;;;;;11.66;74.55;101517.22;5024509;28;20045;-85
2021/06/01 04:34:42;;;;;;;0.20;0.20;;;;;;;11.66;74.61;101500.84;5020152;28;20046;-85
2021/06/01 04:37:10;;;;;;;0.20;0.20;;;;;;;11.74;74.03;101516.72;5026688;28;20379;-86
2021/06/01 04:39:43;;;;;;;0.30;0.30;;;;;;;11.82;73.78;101523.56;5022157;28;20042;-85
2021/06/01 04:42:16;;;;;;;0.20;0.20;;;;;;;11.85;73.38;101514.84;5025322;28;20057;-86
2021/06/01 04:44:49;;;;;;;0.20;0.20;;;;;;;11.93;73.62;101521.66;5031313;28;20046;-85
2021/06/01 04:47:21;;;;;;;0.30;0.30;;;;;;;11.94;73.69;101512.44;5032813;28;20065;-85
2021/06/01 04:49:58;;;;;;;0.30;0.30;;;;;;;12.09;73.57;101517.13;5033303;28;20065;-85
2021/06/01 04:52:26;;;;;;;0.20;0.20;;;;;;;12.21;72.64;101527.78;5019045;28;20072;-85
2021/06/01 04:54:58;;;;;;;0.20;0.20;;;;;;;12.11;72.24;101486.81;5021766;28;20046;-86
2021/06/01 04:57:31;;;;;;;0.20;0.20;;;;;;;12.46;69.66;101520.72;5025704;28;20053;-86
2021/06/01 05:00:11;;;;;;;;;;;;;;;12.59;70.34;101523.75;5025529;28;20536;-84
2021/06/01 05:02:39;;;;;;;0.20;0.20;;;;;;;12.74;70.84;101514.69;5033969;28;20321;-85
2021/06/01 05:05:50;;;;;;;0.30;0.30;;;;;;;13.03;68.65;101510.59;5033953;28;20054;-86
2021/06/01 05:08:24;;;;;;;0.30;0.30;;;;;;;14.48;64.78;101511.56;5025468;28;20045;-86
2021/06/01 05:10:57;;;;;;;0.30;0.30;;;;;;;17.06;59.63;101502.81;5025925;28;20045;-85
2021/06/01 05:13:34;;;;;;;0.30;0.30;;;;;;;18.04;53.50;101503.56;5025022;28;20053;-86
2021/06/01 05:16:21;;;;;;;0.30;0.30;;;;;;;18.76;54.20;101510.91;5035239;28;20062;-84
2021/06/01 05:18:53;;;;;;;0.30;0.30;;;;;;;20.28;49.12;101479.53;5023455;28;20423;-85
2021/06/01 05:21:26;;;;;;;0.22;0.22;;;;;;;20.33;48.16;101487.66;5025400;28;20061;-83
2021/06/01 05:24:51;;;;;;;0.20;0.20;;;;;;;18.49;51.56;101493.41;5033703;28;20498;-85
2021/06/01 05:27:25;;;;;;;0.28;0.20;;;;;;;17.00;52.77;101499.34;5027188;28;20521;-85
2021/06/01 05:30:02;;;;;;;0.20;0.20;;;;;;;17.36;53.45;101497.81;5020160;28;20049;-85
2021/06/01 05:33:09;;;;;;;0.57;0.20;;;;;;;18.12;55.90;101481.59;5015719;28;20498;-85
2021/06/01 05:36:09;;;;;;;0.25;0.25;;;;;;;18.39;54.61;101482.59;5016967;28;20053;-84
2021/06/01 05:38:44;;;;;;;0.17;0.17;;;;;;;17.96;55.92;101458.31;5029363;28;20057;-85
2021/06/01 05:41:19;;;;;;;0.20;0.20;;;;;;;17.22;54.86;101440.88;5021658;28;20755;-85
2021/06/01 05:44:27;;;;;;;0.20;0.20;;;;;;;16.65;57.57;101496.91;5022304;28;20422;-87
2021/06/01 05:48:01;;;;;;;0.10;0.10;;;;;;;16.48;57.55;101493.88;5031182;28;20053;-85
2021/06/01 05:50:35;;;;;;;0.30;0.30;;;;;;;16.12;60.17;101495.25;5023619;28;20037;-86
2021/06/01 05:53:04;;;;;;;0.20;0.20;;;;;;;15.77;58.73;101458.13;5031296;28;20049;-86
2021/06/01 05:55:33;;;;;;;0.20;0.20;;;;;;;15.84;60.64;101488.81;5017111;28;20058;-84
2021/06/01 05:58:10;;;;;;;0.20;0.20;;;;;;;15.58;60.97;101504.75;5025641;28;20493;-86
2021/06/01 06:01:24;;;;;;;0.17;0.17;;;;;;;15.50;60.46;101497.97;5028441;28;20049;-84
2021/06/01 06:07:33;;;;;;;0.20;0.20;;;;;;;15.01;61.29;101510.88;5017365;28;20046;-85
2021/06/01 06:10:25;;;;;;;0.20;0.20;;;;;;;15.18;60.49;101506.84;5015296;28;20521;-85
2021/06/01 06:12:58;;;;;;;0.20;0.20;;;;;;;15.39;59.86;101491.00;5014599;28;20471;-86
2021/06/01 06:15:59;;;;;;;0.20;0.20;;;;;;;15.23;59.70;101504.88;5038947;28;20486;-85
2021/06/01 06:21:58;;;;;;;0.30;0.30;;;;;;;15.03;59.16;101496.88;5017485;28;20445;-86
2021/06/01 06:28:35;;;;;;;0.20;0.20;;;;;;;15.28;59.76;101507.56;5025396;28;20383;-86
2021/06/01 06:31:34;;;;;;;0.20;0.20;;;;;;;15.29;61.24;101508.38;5024069;28;20041;-85
2021/06/01 06:34:07;;;;;;;0.20;0.20;;;;;;;15.50;60.79;101508.16;5016936;28;20058;-88
2021/06/01 06:36:45;;;;;;;0.20;0.20;;;;;;;15.44;61.59;101505.47;5018363;28;20053;-85
2021/06/01 06:39:18;;;;;;;0.20;0.20;;;;;;;15.61;61.66;101501.41;5014985;28;20101;-86
2021/06/01 06:41:51;;;;;;;0.20;0.20;;;;;;;15.78;58.50;101506.41;5010289;28;20053;-85
2021/06/01 06:44:21;;;;;;;0.20;0.20;;;;;;;15.89;57.31;101504.38;5008939;28;20053;-88
2021/06/01 06:47:04;;;;;;;0.20;0.20;;;;;;;15.78;55.41;101500.91;5005833;28;20149;-85
2021/06/01 06:49:46;;;;;;;0.17;0.17;;;;;;;15.84;57.59;101498.94;5007725;28;20045;-86
2021/06/01 06:52:13;;;;;;;0.35;0.35;;;;;;;16.30;55.45;101503.78;5005769;28;20065;-87
2021/06/01 06:54:46;;;;;;;0.10;0.10;;;;;;;16.10;58.46;101492.00;5011446;28;20068;-86
2021/06/01 06:57:19;;;;;;;0.20;0.20;;;;;;;16.39;56.11;101507.50;5004143;28;20058;-86
2021/06/01 06:59:57;;;;;;;0.32;0.20;;;;;;;16.19;56.20;101497.63;5004422;28;20072;-84
2021/06/01 07:02:28;;;;;;;0.22;0.22;;;;;;;16.32;56.93;101499.63;5007570;28;20046;-88
2021/06/01 07:04:57;;;;;;;0.20;0.20;;;;;;;16.29;59.21;101491.97;5009297;28;20057;-86
2021/06/01 07:07:26;;;;;;;0.10;0.10;;;;;;;16.25;57.85;101492.88;5005798;28;20068;-86
2021/06/01 07:10:04;;;;;;;0.20;0.20;;;;;;;16.14;57.93;101453.75;5006134;28;20049;-86
2021/06/01 07:12:36;;;;;;;0.22;0.22;;;;;;;16.40;54.52;101502.81;5005604;28;20057;-87
2021/06/01 07:15:37;;;;;;;0.20;0.20;;;;;;;16.48;56.54;101489.19;5007460;28;20054;-87
2021/06/01 07:18:38;;;;;;;0.20;0.20;;;;;;;16.58;55.72;101490.16;5011978;28;20064;-87
2021/06/01 07:21:07;;;;;;;0.15;0.10;;;;;;;16.58;55.68;101490.16;5008511;28;20057;-87
2021/06/01 07:23:35;;;;;;;0.20;0.20;;;;;;;16.49;52.34;101477.09;5007861;28;20065;-86
2021/06/01 07:26:04;;;;;;;0.10;0.10;;;;;;;16.53;52.18;101485.56;5012749;28;20058;-87
2021/06/01 07:28:37;;;;;;;0.20;0.20;;;;;;;16.47;50.94;101438.13;5003734;28;20062;-87
2021/06/01 07:31:14;;;;;;;0.28;0.20;;;;;;;16.69;51.91;101472.34;5002981;28;20753;-87
2021/06/01 07:33:42;;;;;;;0.20;0.20;;;;;;;16.86;51.68;101470.97;5005765;28;20045;-84
2021/06/01 07:36:10;;;;;;;0.10;0.10;;;;;;;16.90;56.92;101467.31;5003873;28;20049;-86
2021/06/01 07:38:43;;;;;;;0.20;0.20;;;;;;;17.08;54.35;101462.88;5002868;28;20441;-87
2021/06/01 07:41:17;;;;;;;0.20;0.20;;;;;;;17.07;52.46;101469.50;5004799;28;20418;-87
2021/06/01 07:43:46;;;;;;;0.10;0.10;;;;;;;16.74;53.43;101422.81;5003164;28;20061;-88
2021/06/01 07:46:22;;;;;;;0.20;0.20;;;;;;;17.23;50.87;101478.25;5007047;28;20052;-85
2021/06/01 07:48:55;;;;;;;0.20;0.20;;;;;;;17.19;50.55;101446.97;5005175;28;20053;-84
2021/06/01 07:51:28;;;;;;;0.20;0.20;;;;;;;17.49;50.80;101477.75;5009226;28;20052;-87
2021/06/01 07:53:58;;;;;;;0.20;0.20;;;;;;;17.64;53.30;101471.09;5007540;28;20053;-87
2021/06/01 07:56:31;;;;;;;0.13;0.13;;;;;;;17.33;51.12;101447.78;5001991;28;20053;-85
2021/06/01 07:59:03;;;;;;;0.10;0.10;;;;;;;17.59;48.48;101463.75;5008932;28;20510;-85
2021/06/01 08:01:34;;;;;;;0.10;0.10;;;;;;;17.64;48.73;101438.88;5004341;28;20054;-86
2021/06/01 08:04:01;;;;;;;0.20;0.20;;;;;;;17.62;45.40;101463.16;5011631;28;20046;-87
2021/06/01 08:06:36;;;;;;;0.20;0.20;;;;;;;17.37;46.22;101458.19;5003401;28;20076;-87
2021/06/01 08:09:08;;;;;;;0.10;0.10;;;;;;;17.49;47.67;101459.28;5003208;28;20071;-86
2021/06/01 08:11:43;;;;;;;0.10;0.10;;;;;;;17.47;49.41;101457.97;5004259;28;20054;-88
2021/06/01 08:14:16;;;;;;;0.17;0.17;;;;;;;17.45;53.00;101455.50;5012187;28;20061;-86
2021/06/01 08:16:46;;;;;;;0.25;0.25;;;;;;;17.50;48.56;101435.34;5008274;28;20049;-85
2021/06/01 08:19:22;;;;;;;0.15;0.15;;;;;;;17.44;50.00;101387.88;5012542;28;20502;-87
2021/06/01 08:21:55;;;;;;;0.17;0.10;;;;;;;17.98;48.73;101461.53;5005622;28;20627;-87
2021/06/01 08:24:26;;;;;;;0.10;0.10;;;;;;;17.77;50.02;101414.38;5008960;28;20042;-86
2021/06/01 08:26:58;;;;;;;0.10;0.10;;;;;;;17.61;47.00;101389.97;5009501;28;20057;-87
2021/06/01 08:29:32;;;;;;;0.20;0.20;;;;;;;18.04;51.83;101423.72;5009924;28;20489;-85
2021/06/01 08:32:02;;;;;;;0.13;0.13;;;;;;;18.23;51.64;101417.97;5006950;28;20057;-85
2021/06/01 08:34:31;;;;;;;0.13;0.13;;;;;;;18.24;52.22;101436.16;5013280;28;20061;-87
2021/06/01 08:37:24;;;;;;;0.10;0.10;;;;;;;18.50;50.52;101447.34;5008246;28;20045;-87
2021/06/01 08:39:52;;;;;;;0.10;0.10;;;;;;;18.31;52.76;101442.03;5012662;28;20069;-86
2021/06/01 08:42:22;;;;;;;0.45;0.20;;;;;;;18.35;50.44;101440.28;5005038;28;20045;-88
2021/06/01 08:44:55;;;;;;;0.10;0.10;;;;;;;17.95;49.37;101407.09;5009028;28;20064;-89
2021/06/01 08:47:32;;;;;;;0.10;0.10;;;;;;;18.31;47.78;101431.00;5010995;28;20057;-86
2021/06/01 08:50:03;;;;;;;0.20;0.20;;;;;;;18.58;50.51;101432.00;5004247;28;20053;-87
2021/06/01 08:52:34;;;;;;;0.32;0.20;;;;;;;18.50;47.35;101426.09;5011722;28;20057;-86
2021/06/01 08:55:12;;;;;;;0.20;0.20;;;;;;;18.83;46.09;101424.97;5011492;28;20058;-87
2021/06/01 08:57:43;;;;;;;0.20;0.20;;;;;;;18.56;47.06;101415.78;5007898;28;20333;-88
2021/06/01 09:00:13;;;;;;;0.20;0.20;;;;;;;18.37;47.69;101396.69;5007382;28;20077;-87
2021/06/01 09:02:42;;;;;;;0.65;0.20;;;;;;;18.57;46.82;101419.34;5006564;28;20058;-86
2021/06/01 09:05:36;;;;;;;0.10;0.10;;;;;;;18.79;44.62;101426.75;5002667;28;20072;-88
2021/06/01 09:08:40;;;;;;;0.15;0.15;;;;;;;19.20;45.06;101429.19;5013387;28;20092;-88
2021/06/01 09:11:27;;;;;;;0.20;0.20;;;;;;;19.14;44.45;101427.72;5007331;28;20060;-88
2021/06/01 09:20:56;;;;;;;0.20;0.20;;;;;;;19.50;44.16;101425.84;4999177;28;20049;-87
2021/06/01 09:22:51;;;;;;;0.13;0.13;;;;;;;19.58;44.85;101418.72;5006149;28;21245;-88
2021/06/01 09:25:34;;;;;;;0.20;0.20;;;;;;;19.41;46.27;101420.31;5009396;28;20068;-86
2021/06/01 09:28:07;;;;;;;0.20;0.20;;;;;;;19.48;48.73;101365.44;5013870;28;20049;-86
2021/06/01 09:30:38;;;;;;;0.20;0.20;;;;;;;19.82;46.02;101405.28;5005306;28;20064;-88
2021/06/01 09:33:26;;;;;;;0.50;0.20;;;;;;;19.64;45.75;101385.09;5007311;28;20434;-87
2021/06/01 09:35:57;;;;;;;0.20;0.20;;;;;;;19.53;44.40;101390.13;5004104;28;20053;-87
2021/06/01 09:38:28;;;;;;;0.20;0.20;;;;;;;19.85;45.75;101404.63;5006604;28;20054;-86
2021/06/01 09:41:04;;;;;;;0.20;0.20;;;;;;;19.66;43.96;101379.25;5007136;28;20050;-88
2021/06/01 09:43:51;;;;;;;0.10;0.10;;;;;;;20.15;45.88;101410.28;5007145;28;20053;-86
2021/06/01 09:46:20;;;;;;;0.10;0.10;;;;;;;20.14;44.72;101408.66;5006070;28;20053;-87
2021/06/01 09:48:54;;;;;;;0.20;0.20;;;;;;;19.97;43.35;101378.28;5007760;28;20494;-88
2021/06/01 09:51:33;;;;;;;0.20;0.20;;;;;;;20.13;44.98;101395.16;5009136;28;20052;-87
2021/06/01 09:54:29;;;;;;;0.10;0.10;;;;;;;20.18;45.72;101406.06;5005613;28;20060;-88
2021/06/01 09:56:57;;;;;;;0.17;0.17;;;;;;;19.86;43.96;101367.56;5005380;28;20061;-88
2021/06/01 09:59:25;;;;;;;0.20;0.20;;;;;;;20.29;43.33;101410.09;5004416;28;20546;-88
2021/06/01 10:01:54;;;;;;;0.15;0.15;;;;;;;20.05;45.20;101382.97;5010047;28;20406;-86
2021/06/01 10:04:24;;;;;;;0.20;0.20;;;;;;;20.16;43.47;101395.34;5008545;28;20060;-89
2021/06/01 10:06:54;;;;;;;0.20;0.20;;;;;;;19.80;44.20;101392.91;5005000;28;20065;-87
2021/06/01 10:09:43;;;;;;;0.13;0.13;;;;;;;20.03;44.70;101388.03;5003013;28;20053;-86
2021/06/01 10:12:13;;;;;;;0.20;0.20;;;;;;;20.26;43.89;101377.59;5001566;28;20046;-86
2021/06/01 10:14:49;;;;;;;0.85;0.30;;;;;;;20.21;43.79;101372.22;5018990;28;20054;-86
2021/06/01 10:17:52;;;;;;;0.20;0.20;;;;;;;20.22;44.99;101384.91;5004821;28;20054;-86
2021/06/01 10:20:32;;;;;;;0.22;0.20;;;;;;;20.49;44.33;101372.63;5008454;28;20060;-89
2021/06/01 10:23:04;;;;;;;0.20;0.20;;;;;;;20.58;44.91;101366.25;5002626;28;20064;-87
2021/06/01 10:25:37;;;;;;;0.20;0.20;;;;;;;20.38;43.90;101352.03;5001572;28;20061;-87
2021/06/01 10:28:07;;;;;;;0.85;0.20;;;;;;;20.66;43.94;101373.69;5002985;28;20088;-86
2021/06/01 10:30:41;;;;;;;0.10;0.10;;;;;;;20.70;43.83;101358.09;5011551;28;20501;-87
2021/06/01 10:34:04;;;;;;;0.10;0.10;;;;;;;20.58;43.23;101378.16;5004394;28;21251;-88
2021/06/01 10:42:42;;;;;;;0.20;0.20;;;;;;;20.32;42.61;101317.41;5005604;28;20049;-85
2021/06/01 10:51:26;;;;;;;0.10;0.10;;;;;;;20.95;41.97;101328.69;5004641;28;21008;-88
2021/06/01 10:54:52;;;;;;;0.20;0.20;;;;;;;21.03;41.96;101325.06;5006993;28;20501;-87
2021/06/01 10:57:54;;;;;;;0.20;0.20;;;;;;;20.88;42.48;101361.59;5005048;28;20062;-87
2021/06/01 11:04:03;;;;;;;0.10;0.10;;;;;;;21.46;44.02;101344.44;5007642;28;20053;-88
2021/06/01 11:07:09;;;;;;;0.20;0.20;;;;;;;21.39;42.10;101334.75;5020655;28;20062;-85
2021/06/01 11:09:48;;;;;;;0.10;0.10;;;;;;;21.57;42.54;101338.19;5010896;28;20060;-87
2021/06/01 11:12:39;;;;;;;0.20;0.20;;;;;;;21.47;41.01;101346.88;5005533;28;20068;-88
2021/06/01 11:15:28;;;;;;;0.20;0.20;;;;;;;21.21;41.05;101313.84;5003018;28;20053;-88
2021/06/01 11:18:32;;;;;;;0.20;0.20;;;;;;;21.83;43.27;101328.03;5005425;28;20060;-86
2021/06/01 11:21:20;;;;;;;0.10;0.10;;;;;;;21.44;40.33;101319.88;5009975;28;20068;-88
2021/06/01 11:24:47;;;;;;;0.20;0.20;;;;;;;21.18;41.70;101331.16;5005197;28;20065;-89
2021/06/01 11:33:26;;;;;;;0.17;0.17;;;;;;;20.94;40.43;101293.88;5007599;28;20068;-87
2021/06/01 11:36:03;;;;;;;0.10;0.10;;;;;;;21.22;39.78;101309.94;5012287;28;20053;-87
2021/06/01 11:38:40;;;;;;;0.20;0.20;;;;;;;21.13;42.29;101290.66;5007697;28;20394;-88
2021/06/01 11:42:46;;;;;;;0.13;0.13;;;;;;;21.19;39.65;101305.91;5004287;28;20718;-88
2021/06/01 11:44:39;;;;;;;0.10;0.10;;;;;;;21.22;39.20;101318.25;4981972;28;21179;-89
2021/06/01 11:47:15;;;;;;;0.20;0.20;;;;;;;21.20;40.56;101304.75;5008588;28;20490;-86
2021/06/01 11:52:40;;;;;;;0.20;0.20;;;;;;;21.08;39.45;101270.66;5006527;28;20092;-90
2021/06/01 11:55:15;;;;;;;0.20;0.20;;;;;;;21.08;39.79;101278.97;5007004;28;20049;-85
2021/06/01 12:03:24;;;;;;;0.10;0.10;;;;;;;21.01;40.38;101305.22;5007643;28;20057;-86
2021/06/01 12:12:06;;;;;;;0.10;0.10;;;;;;;21.22;40.56;101290.56;5006099;28;20042;-89
2021/06/01 12:17:51;;;;;;;0.35;0.20;;;;;;;21.36;39.71;101282.00;5024930;28;20421;-92
2021/06/01 12:20:25;;;;;;;0.10;0.10;;;;;;;21.26;39.74;101277.69;5005903;28;20064;-90
2021/06/01 12:22:53;;;;;;;0.40;0.10;;;;;;;21.26;41.12;101285.97;5008809;28;20053;-89
2021/06/01 12:25:21;;;;;;;0.10;0.10;;;;;;;21.47;39.26;101276.84;5014590;28;20853;-89
2021/06/01 12:28:06;;;;;;;0.22;0.10;;;;;;;20.93;39.40;101242.44;5004783;28;20401;-89
2021/06/01 12:30:57;;;;;;;0.10;0.10;;;;;;;21.52;40.04;101274.72;5005326;28;20046;-89
2021/06/01 12:33:26;;;;;;;0.20;0.20;;;;;;;21.60;40.10;101263.88;5012792;28;20053;-89
2021/06/01 12:36:53;;;;;;;0.20;0.20;;;;;;;21.51;39.73;101231.50;4999959;28;20054;-90
2021/06/01 12:42:19;;;;;;;0.10;0.10;;;;;;;21.73;40.19;101268.31;4909677;29;20059;-88
2021/06/01 12:44:52;;;;;;;0.20;0.20;;;;;;;21.64;37.01;101276.72;4933107;29;20051;-89
2021/06/01 13:05:20;;;;;;;0.10;0.10;;;;;;;21.85;37.79;101273.09;4986971;28;20061;-91
2021/06/01 13:08:36;;;;;;;0.10;0.10;;;;;;;22.09;33.51;101250.94;5010317;28;20053;-89
2021/06/01 13:14:38;;;;;;;0.20;0.20;;;;;;;22.25;37.63;101253.84;5011240;28;20075;-89
2021/06/01 13:20:32;;;;;;;0.13;0.13;;;;;;;21.06;36.88;101259.94;4949682;28;20479;-90
2021/06/01 13:31:57;;;;;;;0.20;0.20;;;;;;;20.53;37.81;101246.41;5008075;28;20061;-89
2021/06/01 13:40:26;;;;;;;0.20;0.20;;;;;;;20.33;36.02;101253.50;4993028;28;20065;-90
2021/06/01 13:46:21;;;;;;;0.20;0.20;;;;;;;20.39;37.49;101252.16;4950773;28;20522;-89
2021/06/01 13:49:09;;;;;;;0.20;0.20;;;;;;;20.35;35.51;101244.88;4955575;28;20545;-88
2021/06/01 13:52:16;;;;;;;0.10;0.10;;;;;;;20.50;39.58;101240.75;4991123;28;20068;-88
2021/06/01 13:55:12;;;;;;;0.10;0.10;;;;;;;20.49;34.74;101234.38;5006931;28;20053;-88
2021/06/01 13:57:50;;;;;;;0.10;0.10;;;;;;;20.46;35.45;101212.94;5007441;28;21297;-90
2021/06/01 14:00:37;;;;;;;0.13;0.13;;;;;;;20.47;32.77;101244.97;5012363;28;20755;-89
2021/06/01 14:09:38;;;;;;;0.20;0.20;;;;;;;20.02;31.80;101243.56;5011060;28;20057;-89
2021/06/01 14:15:22;;;;;;;0.10;0.10;;;;;;;20.13;31.85;101254.25;5008196;28;20062;-89
2021/06/01 14:21:11;;;;;;;0.17;0.17;;;;;;;19.90;28.80;101254.50;5009078;28;20057;-89
2021/06/01 14:38:21;;;;;;;0.10;0.10;;;;;;;19.70;28.36;101239.41;4993378;28;20603;-88
2021/06/01 14:56:32;;;;;;;0.10;0.10;;;;;;;19.80;29.87;101205.94;5008291;28;20053;-89
2021/06/01 15:04:50;;;;;;;0.10;0.10;;;;;;;19.14;28.71;101197.91;5015317;28;20049;-88
2021/06/01 15:31:26;;;;;;;0.10;0.10;;;;;;;18.99;22.86;101196.47;5001666;28;20749;-87
2021/06/01 15:48:52;;;;;;;0.15;0.10;;;;;;;19.11;29.98;101170.97;4955750;28;20058;-88
2021/06/01 15:55:06;;;;;;;0.10;0.10;;;;;;;19.07;32.55;101192.06;5001111;28;20069;-88
2021/06/01 16:12:38;;;;;;;0.20;0.20;;;;;;;18.24;35.08;101180.75;5007350;28;20050;-87